createdAt,value
2022-08-25T00:02:54.985Z,1.30
2022-08-25T00:12:58.000Z,1.07
2022-08-25T00:22:59.535Z,1.10
2022-08-25T00:33:01.054Z,1.37
2022-08-25T00:43:03.284Z,1.17
2022-08-25T00:53:05.180Z,1.60
2022-08-25T01:03:07.669Z,1.20
2022-08-25T01:13:20.716Z,1.70
2022-08-25T01:23:23.202Z,1.30
2022-08-25T01:33:24.927Z,1.13
2022-08-25T01:43:36.027Z,1.30
2022-08-25T01:53:37.728Z,1.43
2022-08-25T02:03:41.992Z,1.50
2022-08-25T02:13:43.919Z,1.40
2022-08-25T02:23:46.021Z,1.15
2022-08-25T02:33:47.936Z,6.87
2022-08-25T02:43:50.663Z,2.13
2022-08-25T02:53:52.665Z,1.50
2022-08-25T03:03:54.344Z,1.53
2022-08-25T03:13:55.924Z,1.50
2022-08-25T03:23:58.777Z,2.60
2022-08-25T03:34:01.115Z,3.60
2022-08-25T03:44:04.835Z,5.13
2022-08-25T03:54:07.848Z,5.00
2022-08-25T04:04:11.498Z,4.05
2022-08-25T04:14:16.666Z,2.97
2022-08-25T04:24:19.027Z,2.50
2022-08-25T04:34:29.617Z,2.73
2022-08-25T04:44:32.568Z,2.90
2022-08-25T04:54:37.148Z,2.92
2022-08-25T05:04:39.171Z,2.47
2022-08-25T05:14:40.853Z,2.87
2022-08-25T05:25:26.379Z,3.27
2022-08-25T05:35:27.990Z,2.90
2022-08-25T05:45:29.620Z,2.10
2022-08-25T05:55:31.236Z,2.80
2022-08-25T06:05:33.287Z,2.53
2022-08-25T06:15:35.525Z,2.70
2022-08-25T06:25:37.079Z,3.50
2022-08-25T06:46:36.942Z,2.73
2022-08-25T06:56:42.340Z,2.97
2022-08-25T07:06:43.920Z,2.97
2022-08-25T07:16:49.562Z,2.50
2022-08-25T07:26:52.233Z,2.50
2022-08-25T07:36:55.048Z,2.60
2022-08-25T07:46:57.095Z,2.20
2022-08-25T07:56:58.707Z,2.63
2022-08-25T08:07:00.310Z,2.43
2022-08-25T08:17:09.237Z,2.15
2022-08-25T08:27:12.572Z,2.43
2022-08-25T08:37:15.148Z,2.57
2022-08-25T08:47:24.277Z,2.50
2022-08-25T08:57:28.455Z,2.30
2022-08-25T09:07:47.521Z,2.47
2022-08-25T09:18:16.507Z,3.00
2022-08-25T09:28:30.137Z,4.30
2022-08-25T09:38:31.913Z,2.97
2022-08-25T09:48:42.744Z,3.30
2022-08-25T09:58:44.333Z,2.80
2022-08-25T10:08:46.263Z,3.70
2022-08-25T10:19:00.572Z,5.00
2022-08-25T10:29:16.659Z,4.13
2022-08-25T10:39:33.806Z,3.80
2022-08-25T10:49:45.996Z,6.28
2022-08-25T10:59:56.374Z,5.93
2022-08-25T11:10:47.884Z,5.57
2022-08-25T11:21:12.771Z,4.70
2022-08-25T11:31:17.188Z,3.67
2022-08-25T11:41:56.140Z,3.45
2022-08-25T11:52:02.904Z,3.47
2022-08-25T12:02:04.923Z,3.53
2022-08-25T12:12:27.687Z,3.67
2022-08-25T12:22:32.250Z,3.80
2022-08-25T12:32:58.357Z,3.08
2022-08-25T12:43:12.286Z,3.63
2022-08-25T12:53:35.173Z,4.07
2022-08-25T13:03:57.350Z,4.37
2022-08-25T13:14:12.080Z,4.10
2022-08-25T13:24:40.424Z,3.10
2022-08-25T13:34:43.679Z,3.50
2022-08-25T13:44:52.406Z,4.00
2022-08-25T13:55:00.820Z,3.73
2022-08-25T14:05:07.200Z,4.07
2022-08-25T14:15:26.170Z,3.58
2022-08-25T14:25:28.976Z,3.23
2022-08-25T14:35:32.224Z,3.50
2022-08-25T14:45:36.384Z,3.37
2022-08-25T14:55:38.272Z,3.43
2022-08-25T15:05:41.908Z,3.30
2022-08-25T15:15:52.564Z,3.73
2022-08-25T15:25:55.532Z,3.50
2022-08-25T15:35:57.190Z,4.80
2022-08-25T15:46:00.115Z,5.73
2022-08-25T15:56:04.879Z,3.15
2022-08-25T16:06:08.517Z,3.73
2022-08-25T16:16:10.132Z,3.57
2022-08-25T16:26:12.909Z,2.80
2022-08-25T16:36:21.099Z,3.60
2022-08-25T16:46:23.856Z,3.20
2022-08-25T16:56:27.219Z,3.87
2022-08-25T17:06:33.770Z,2.97
2022-08-25T17:16:36.179Z,2.80
2022-08-25T17:26:40.647Z,3.57
2022-08-25T17:36:42.550Z,3.83
2022-08-25T17:46:47.420Z,2.97
2022-08-25T17:56:49.417Z,3.07
2022-08-25T18:06:50.906Z,3.77
2022-08-25T18:16:53.111Z,3.93
2022-08-25T18:26:54.628Z,3.88
2022-08-25T18:36:56.124Z,3.73
2022-08-25T18:46:57.928Z,3.30
2022-08-25T18:56:59.419Z,4.80
2022-08-25T19:07:01.510Z,3.80
2022-08-25T19:17:03.163Z,5.30
2022-08-25T19:27:05.441Z,4.13
2022-08-25T19:37:16.473Z,3.47
2022-08-25T19:47:19.461Z,4.90
2022-08-25T19:57:28.632Z,4.87
2022-08-25T20:07:44.503Z,5.57
2022-08-25T20:17:46.164Z,5.30
2022-08-25T20:27:51.162Z,5.93
2022-08-25T20:37:53.126Z,5.10
2022-08-25T20:47:54.783Z,5.53
2022-08-25T20:57:56.303Z,4.95
2022-08-25T21:07:57.831Z,4.87
2022-08-25T21:17:59.530Z,4.30
2022-08-25T21:28:01.120Z,4.77
2022-08-25T21:38:02.632Z,4.90
2022-08-25T21:48:04.717Z,5.38
2022-08-25T21:58:07.602Z,5.23
2022-08-25T22:08:10.619Z,4.90
2022-08-25T22:18:13.193Z,4.93
2022-08-25T22:28:15.501Z,4.20
2022-08-25T22:38:17.023Z,4.10
2022-08-25T22:48:18.553Z,4.73
2022-08-25T22:58:20.124Z,4.83
2022-08-25T23:08:29.393Z,4.57
2022-08-25T23:18:43.940Z,4.10
2022-08-25T23:28:46.462Z,4.82
2022-08-25T23:38:51.755Z,4.10
2022-08-25T23:48:54.668Z,4.73
2022-08-25T23:58:56.697Z,4.50
